createdAt,value
2018-06-30T10:52:24.781Z,28
2018-06-30T10:53:26.850Z,28.4
2018-06-30T10:54:28.852Z,28.4
2018-06-30T10:55:30.245Z,28.3
2018-06-30T10:56:33.451Z,28.1
2018-06-30T10:57:36.051Z,27.9
2018-06-30T10:58:37.607Z,27.7
2018-06-30T10:59:39.022Z,27.8
2018-06-30T11:00:47.786Z,28.2
2018-06-30T11:01:49.623Z,28.3
2018-06-30T11:02:51.408Z,28.6
2018-06-30T11:03:57.381Z,28.1
2018-06-30T11:04:58.819Z,28.5
2018-06-30T11:06:02.744Z,28.6
2018-06-30T11:07:04.370Z,28.1
2018-06-30T11:08:10.144Z,28.2
2018-06-30T11:09:14.396Z,28.1
2018-06-30T11:10:16.956Z,28
2018-06-30T11:11:27.097Z,28.4
2018-06-30T11:12:29.785Z,28.4
2018-06-30T11:13:31.226Z,28.1
2018-06-30T11:14:32.770Z,28.1
2018-06-30T11:15:36.483Z,28.3
2018-06-30T11:16:38.014Z,28.4
2018-06-30T11:17:39.570Z,28.3
2018-06-30T11:18:41.038Z,28.5
2018-06-30T11:19:42.668Z,28.4
2018-06-30T11:20:44.300Z,28.5
2018-06-30T11:21:45.658Z,28.2
2018-06-30T11:22:47.220Z,28.3
2018-06-30T11:23:48.837Z,28.4
2018-06-30T11:24:58.164Z,28.6
2018-06-30T11:25:59.535Z,28.5
2018-06-30T11:27:03.684Z,28.4
2018-06-30T11:28:06.797Z,28.1
2018-06-30T11:29:08.439Z,28.2
2018-06-30T11:30:09.788Z,28.2
2018-06-30T11:31:11.845Z,27.5
2018-06-30T11:32:13.269Z,27.5
2018-06-30T11:33:14.774Z,27.8
2018-06-30T11:34:21.356Z,28
2018-06-30T11:35:22.848Z,28.1
2018-06-30T11:36:29.580Z,28.1
2018-06-30T11:37:30.979Z,28
2018-06-30T11:38:34.737Z,28.3
2018-06-30T11:39:38.795Z,28
2018-06-30T11:40:41.510Z,27.7
2018-06-30T11:41:43.012Z,27.9
2018-06-30T11:42:44.471Z,27.6
2018-06-30T11:43:45.872Z,27.5
2018-06-30T11:44:47.577Z,27.7
2018-06-30T11:45:51.441Z,27.8
2018-06-30T11:46:52.785Z,28.1
2018-06-30T11:47:54.345Z,28.1
2018-06-30T11:48:56.342Z,28.3
2018-06-30T11:49:57.887Z,28.1
2018-06-30T11:51:02.029Z,28
2018-06-30T11:52:03.365Z,27.7
2018-06-30T11:53:05.038Z,27.3
2018-06-30T11:54:09.751Z,27.4
2018-06-30T11:55:11.246Z,27.2
2018-06-30T11:56:12.691Z,27.6
2018-06-30T11:57:14.263Z,27.8
2018-06-30T11:58:18.638Z,27.7
2018-06-30T11:59:21.990Z,27.9
2018-06-30T12:00:23.721Z,27.5
2018-06-30T12:01:25.652Z,27.8
2018-06-30T12:02:27.050Z,27.4
2018-06-30T12:03:28.624Z,27.3
2018-06-30T12:04:29.995Z,27.2
2018-06-30T12:05:31.305Z,27.6
2018-06-30T12:06:55.148Z,27.6
2018-06-30T12:07:56.476Z,27.6
2018-06-30T12:08:58.105Z,27.4
2018-06-30T12:09:59.547Z,27.8
2018-06-30T12:11:00.927Z,27.9
2018-06-30T12:12:04.772Z,27.8
2018-06-30T12:13:06.198Z,27.6
2018-06-30T12:14:09.168Z,27.7
2018-06-30T12:15:10.779Z,27.8
2018-06-30T12:16:13.577Z,27.9
2018-06-30T12:17:14.964Z,27.7
2018-06-30T12:18:16.637Z,28
2018-06-30T12:19:19.600Z,28
2018-06-30T12:20:22.627Z,27.8
2018-06-30T12:21:26.412Z,27.6
2018-06-30T12:22:28.024Z,27.7
2018-06-30T12:23:29.607Z,27.6
2018-06-30T12:24:31.252Z,27.7
2018-06-30T12:25:35.493Z,27.4
2018-06-30T12:26:37.245Z,27.7
2018-06-30T12:27:38.731Z,27.4
2018-06-30T12:28:40.989Z,27.5
2018-06-30T12:29:42.401Z,27.3
2018-06-30T12:31:00.197Z,27.2
2018-06-30T12:32:01.827Z,27.2
2018-06-30T12:33:03.395Z,27.7
2018-06-30T12:34:27.009Z,27.5
2018-06-30T12:35:29.192Z,27.3
2018-06-30T12:36:32.267Z,27.3
2018-06-30T12:37:36.868Z,27.4
2018-06-30T12:38:42.491Z,27.3
2018-06-30T12:39:43.858Z,27.3
2018-06-30T12:40:45.211Z,27.2
2018-06-30T12:41:46.785Z,27.5
2018-06-30T12:44:04.087Z,27.7
2018-06-30T12:45:08.151Z,27.3
2018-06-30T12:46:13.840Z,27.6
2018-06-30T12:47:19.279Z,27.6
2018-06-30T12:48:20.640Z,27.3
2018-06-30T12:49:21.957Z,27.6
2018-06-30T12:50:23.409Z,27.5
2018-06-30T12:51:24.849Z,27.7
2018-06-30T12:52:26.281Z,27.6
2018-06-30T12:53:27.769Z,27.8
2018-06-30T12:54:29.265Z,27.8
2018-06-30T12:55:33.084Z,27.6
2018-06-30T12:56:34.388Z,27.1
2018-06-30T12:57:41.785Z,27.3
2018-06-30T12:58:46.330Z,27.4
2018-06-30T12:59:47.763Z,27.5
2018-06-30T13:00:49.091Z,27.3
2018-06-30T13:01:50.486Z,27.2
2018-06-30T13:02:52.092Z,27.5
2018-06-30T13:03:53.534Z,27.4
2018-06-30T13:04:54.880Z,27.5
2018-06-30T13:06:11.667Z,27.5
2018-06-30T13:07:13.158Z,27.5
2018-06-30T13:08:17.286Z,27.7
2018-06-30T13:09:20.342Z,27.8
2018-06-30T13:10:24.418Z,27.8
2018-06-30T13:11:25.821Z,27.6
2018-06-30T13:12:31.832Z,27.6
2018-06-30T13:13:33.589Z,27.3
2018-06-30T13:14:37.659Z,27.3
2018-06-30T13:15:41.686Z,27.3
2018-06-30T13:16:45.664Z,27.3
2018-06-30T13:17:47.061Z,27
2018-06-30T13:18:48.643Z,26.8
2018-06-30T13:19:50.011Z,27
2018-06-30T13:20:51.553Z,27
2018-06-30T13:21:52.883Z,27.2
2018-06-30T13:22:54.334Z,27.3
2018-06-30T13:23:55.820Z,27.2
2018-06-30T13:24:58.680Z,27.1
2018-06-30T13:26:00.033Z,27.2
2018-06-30T13:27:01.445Z,27
2018-06-30T13:28:07.619Z,27.2
2018-06-30T13:29:10.158Z,26.9
2018-06-30T13:30:14.819Z,26.9
2018-06-30T13:31:16.330Z,27.1
2018-06-30T13:32:18.093Z,27.4
2018-06-30T13:33:19.575Z,27.2
2018-06-30T13:34:21.063Z,27
2018-06-30T13:35:22.613Z,26.8
2018-06-30T13:36:25.608Z,27.1
2018-06-30T13:37:26.962Z,27
2018-06-30T13:38:28.442Z,27
2018-06-30T13:39:30.183Z,27
2018-06-30T13:40:32.607Z,26.8
2018-06-30T13:41:34.664Z,26.9
2018-06-30T13:42:37.707Z,27.1
2018-06-30T13:43:40.423Z,27
2018-06-30T13:44:41.833Z,26.7
2018-06-30T13:45:43.320Z,27
2018-06-30T13:46:44.676Z,27.2
2018-06-30T13:47:45.983Z,27.3
2018-06-30T13:48:47.314Z,27
2018-06-30T13:49:48.777Z,26.7
2018-06-30T13:50:52.347Z,26.8
2018-06-30T13:51:53.693Z,27
2018-06-30T13:54:21.860Z,27
2018-06-30T13:55:30.789Z,27
2018-06-30T13:56:32.261Z,26.9
2018-06-30T13:57:38.061Z,26.9
2018-06-30T13:58:39.429Z,27.2
2018-06-30T13:59:41.501Z,27
2018-06-30T14:00:43.256Z,27
2018-06-30T14:03:06.360Z,27
2018-06-30T14:04:07.942Z,27
2018-06-30T14:05:09.394Z,27.1
2018-06-30T14:06:10.832Z,27.3
2018-06-30T14:07:12.350Z,27.3
2018-06-30T14:08:24.214Z,27.2
2018-06-30T14:09:30.468Z,27
2018-06-30T14:10:32.312Z,27
2018-06-30T14:11:37.158Z,27.1
2018-06-30T14:12:38.739Z,27.3
2018-06-30T14:13:40.399Z,27.3
2018-06-30T14:14:43.221Z,27.4
2018-06-30T14:15:47.302Z,27.4
2018-06-30T14:16:52.185Z,27.5
2018-06-30T14:17:56.268Z,27.3
2018-06-30T14:18:59.681Z,27.4
2018-06-30T14:20:03.323Z,27.2
2018-06-30T14:21:07.257Z,27.4
2018-06-30T14:22:08.846Z,27.2
2018-06-30T14:23:10.193Z,27.1
2018-06-30T14:24:11.781Z,27.3
2018-06-30T14:25:13.175Z,27.3
2018-06-30T14:26:17.137Z,27.4
2018-06-30T14:27:18.553Z,27.4
2018-06-30T14:28:20.415Z,27.3
2018-06-30T14:29:21.974Z,27
2018-06-30T14:30:28.951Z,26.8
2018-06-30T14:31:32.494Z,26.8
2018-06-30T14:32:39.656Z,26.9
2018-06-30T14:33:42.646Z,26.9
2018-06-30T14:34:44.024Z,26.9
2018-06-30T14:35:45.442Z,26.8
2018-06-30T14:36:46.770Z,26.6
2018-06-30T14:37:48.294Z,26.8
2018-06-30T14:38:49.718Z,26.8
2018-06-30T14:39:51.304Z,27
2018-06-30T14:40:52.838Z,26.9
2018-06-30T14:41:54.361Z,27.1
2018-06-30T14:42:55.889Z,27.1
2018-06-30T14:43:59.630Z,27
2018-06-30T14:45:01.361Z,26.8
2018-06-30T14:46:05.662Z,26.9
2018-06-30T14:47:07.483Z,26.7
2018-06-30T14:48:08.974Z,26.6
2018-06-30T14:49:12.727Z,26.8
2018-06-30T14:50:16.287Z,26.8
2018-06-30T14:51:17.597Z,27
2018-06-30T14:52:24.142Z,27
2018-06-30T14:53:32.224Z,26.9
2018-06-30T14:54:39.245Z,27
2018-06-30T14:55:45.085Z,27.1
2018-06-30T14:56:47.131Z,26.9
2018-06-30T14:57:51.735Z,26.9
2018-06-30T14:59:04.843Z,27.1
2018-06-30T15:00:06.704Z,27.1
2018-06-30T15:01:08.516Z,26.7
2018-06-30T15:02:10.158Z,27
2018-06-30T15:03:12.652Z,27.1
2018-06-30T15:04:16.416Z,27.1
2018-06-30T15:05:18.053Z,27
2018-06-30T15:06:19.610Z,27.1
2018-06-30T15:07:21.431Z,27.2
2018-06-30T15:08:24.535Z,27.1
2018-06-30T15:09:25.995Z,27.2
2018-06-30T15:10:30.122Z,27.2
2018-06-30T15:11:36.095Z,27.1
2018-06-30T15:12:46.531Z,27.1
2018-06-30T15:13:50.153Z,27
2018-06-30T15:14:51.717Z,27
2018-06-30T15:15:53.327Z,27
2018-06-30T15:17:00.084Z,27.1
2018-06-30T15:18:01.824Z,27.1
2018-06-30T15:19:03.176Z,27.1
2018-06-30T15:20:04.549Z,27.1
2018-06-30T15:21:11.133Z,27.1
2018-06-30T15:22:12.687Z,27
2018-06-30T15:23:14.059Z,26.7
2018-06-30T15:24:15.655Z,26.8
2018-06-30T15:25:20.410Z,27
2018-06-30T15:26:21.751Z,27
2018-06-30T15:27:23.343Z,27
2018-06-30T15:28:24.689Z,26.9
2018-06-30T15:29:26.047Z,27
2018-06-30T15:30:27.463Z,27
2018-06-30T15:31:29.322Z,27
2018-06-30T15:32:33.662Z,27
2018-06-30T15:33:37.628Z,27.1
2018-06-30T15:34:41.328Z,27.2
2018-06-30T15:35:45.358Z,27.1
2018-06-30T15:36:46.697Z,26.8
2018-06-30T15:37:51.052Z,26.8
2018-06-30T15:38:52.448Z,26.9
2018-06-30T15:39:54.351Z,26.9
2018-06-30T15:40:56.117Z,27
2018-06-30T15:41:58.300Z,26.9
2018-06-30T15:42:59.776Z,26.8
2018-06-30T15:44:01.317Z,26.6
2018-06-30T15:45:03.900Z,26.4
2018-06-30T15:46:07.447Z,26.4
2018-06-30T15:47:16.390Z,26.5
2018-06-30T15:48:17.988Z,26.5
2018-06-30T15:49:19.687Z,26.6
2018-06-30T15:50:21.296Z,26.8
2018-06-30T15:51:23.102Z,26.8
2018-06-30T15:52:25.232Z,26.7
2018-06-30T15:53:36.727Z,26.8
2018-06-30T15:54:41.006Z,26.6
2018-06-30T15:55:42.323Z,26.8
2018-06-30T15:56:47.106Z,26.9
2018-06-30T15:57:48.449Z,26.8
2018-06-30T15:58:51.252Z,26.6
2018-06-30T15:59:52.758Z,26.5
2018-06-30T16:00:54.423Z,26.6
2018-06-30T16:01:56.163Z,26.6
2018-06-30T16:02:57.733Z,26.8
2018-06-30T16:03:59.282Z,26.5
2018-06-30T16:05:00.780Z,26.6
2018-06-30T16:06:03.740Z,26.4
2018-06-30T16:07:08.148Z,26.6
2018-06-30T16:08:10.778Z,26.6
2018-06-30T16:09:12.611Z,26.5
2018-06-30T16:10:14.061Z,26.4
2018-06-30T16:11:15.456Z,26.6
2018-06-30T16:12:16.911Z,26.4
2018-06-30T16:13:18.324Z,26.5
2018-06-30T16:14:20.127Z,26.4
2018-06-30T16:15:21.758Z,26.5
2018-06-30T16:16:23.240Z,26.3
2018-06-30T16:17:24.623Z,26.2
2018-06-30T16:18:27.165Z,26.4
2018-06-30T16:19:33.890Z,26.5
2018-06-30T16:20:35.390Z,26.5
2018-06-30T16:21:36.770Z,26.7
2018-06-30T16:22:40.441Z,26.5
2018-06-30T16:23:41.961Z,26.6
2018-06-30T16:24:43.405Z,26.5
2018-06-30T16:25:44.817Z,26.4
2018-06-30T16:26:47.363Z,26.3
2018-06-30T16:27:50.958Z,26.3
2018-06-30T16:28:52.480Z,26.4
2018-06-30T16:29:53.839Z,26.3
2018-06-30T16:30:59.868Z,26.3
2018-06-30T16:32:03.487Z,26.3
2018-06-30T16:33:04.797Z,26.3
2018-06-30T16:34:08.586Z,26.2
2018-06-30T16:35:13.351Z,26
2018-06-30T16:36:16.932Z,26
2018-06-30T16:37:22.994Z,26
2018-06-30T16:38:24.688Z,25.9
2018-06-30T16:39:28.457Z,25.8
2018-06-30T16:40:29.989Z,25.8
2018-06-30T16:41:35.559Z,25.9
2018-06-30T16:42:43.356Z,26.1
2018-06-30T16:43:45.237Z,26
2018-06-30T16:44:46.845Z,25.9
2018-06-30T16:45:48.342Z,26
2018-06-30T16:46:49.760Z,26
2018-06-30T16:47:56.187Z,26
2018-06-30T16:48:57.551Z,25.8
2018-06-30T16:49:58.986Z,26
2018-06-30T16:51:00.649Z,26.1
2018-06-30T16:52:02.232Z,26.1
2018-06-30T16:53:04.091Z,26
2018-06-30T16:54:05.630Z,26.1
2018-06-30T16:55:07.513Z,26.1
2018-06-30T16:56:18.035Z,26.2
2018-06-30T16:57:19.777Z,26.2
2018-06-30T16:58:22.373Z,25.9
2018-06-30T16:59:23.910Z,25.7
2018-06-30T17:00:25.309Z,25.8
2018-06-30T17:02:51.560Z,26
2018-06-30T17:03:53.498Z,25.8
2018-06-30T17:04:54.875Z,26
2018-06-30T17:05:56.217Z,26.1
2018-06-30T17:06:59.142Z,26
2018-06-30T17:08:00.827Z,26
2018-06-30T17:09:13.888Z,26
2018-06-30T17:10:17.862Z,25.9
2018-06-30T17:11:35.930Z,25.9
2018-06-30T17:12:38.377Z,25.9
2018-06-30T17:13:42.657Z,26
2018-06-30T17:14:44.201Z,26
2018-06-30T17:15:45.543Z,26.1
2018-06-30T17:16:49.170Z,26.1
2018-06-30T17:17:53.694Z,26
2018-06-30T17:18:55.091Z,25.8
2018-06-30T17:19:56.739Z,25.9
2018-06-30T17:20:58.130Z,25.9
2018-06-30T17:21:59.761Z,25.9
2018-06-30T17:23:01.136Z,25.9
2018-06-30T17:24:08.478Z,25.8
2018-06-30T17:25:10.071Z,25.8
2018-06-30T17:26:11.779Z,25.7
2018-06-30T17:27:18.601Z,25.5
2018-06-30T17:28:20.017Z,25.6
2018-06-30T17:29:21.399Z,25.6
2018-06-30T17:30:23.027Z,25.6
2018-06-30T17:31:24.952Z,25.7
2018-06-30T17:32:28.757Z,25.8
2018-06-30T17:33:30.157Z,25.8
2018-06-30T17:34:31.552Z,25.8
2018-06-30T17:35:38.720Z,25.7
2018-06-30T17:36:41.142Z,25.5
2018-06-30T17:37:48.902Z,25.5
2018-06-30T17:38:50.705Z,25.8
2018-06-30T17:40:00.601Z,25.8
2018-06-30T17:41:02.270Z,25.6
2018-06-30T17:42:03.645Z,25.7
2018-06-30T17:43:05.240Z,25.6
2018-06-30T17:44:06.579Z,25.8
2018-06-30T17:45:08.276Z,25.9
2018-06-30T17:46:10.603Z,25.9
2018-06-30T17:47:16.477Z,25.9
2018-06-30T17:48:18.043Z,25.8
2018-06-30T17:49:19.396Z,25.8
2018-06-30T17:50:21.163Z,25.8
2018-06-30T17:51:25.249Z,25.8
2018-06-30T17:52:29.301Z,25.5
2018-06-30T17:53:30.751Z,25.6
2018-06-30T17:54:32.171Z,25.7
2018-06-30T17:55:33.555Z,25.8
2018-06-30T17:56:34.993Z,25.8
2018-06-30T17:57:37.111Z,25.7
2018-06-30T17:58:38.601Z,25.7
2018-06-30T17:59:40.109Z,25.5
2018-06-30T18:00:41.758Z,25.5
2018-06-30T18:01:48.067Z,25.6
2018-06-30T18:02:50.075Z,25.6
2018-06-30T18:03:51.562Z,25.5
2018-06-30T18:04:52.966Z,25.6
2018-06-30T18:05:54.323Z,25.4
2018-06-30T18:06:56.097Z,25.6
2018-06-30T18:08:00.577Z,25.4
2018-06-30T18:09:03.182Z,25.5
2018-06-30T18:10:04.904Z,25.4
2018-06-30T18:11:06.272Z,25.4
2018-06-30T18:12:07.805Z,25.6
2018-06-30T18:13:09.322Z,25.6
2018-06-30T18:14:10.749Z,25.5
2018-06-30T18:15:12.246Z,25.3
2018-06-30T18:16:13.637Z,25.3
2018-06-30T18:17:14.972Z,25.4
2018-06-30T18:18:16.421Z,25.1
2018-06-30T18:19:17.864Z,25.4
2018-06-30T18:20:19.353Z,25.5
2018-06-30T18:21:20.671Z,25.4
2018-06-30T18:22:22.387Z,25.5
2018-06-30T18:23:24.169Z,25.4
2018-06-30T18:24:43.114Z,25.4
2018-06-30T18:25:52.860Z,25.2
2018-06-30T18:27:04.538Z,25.2
2018-06-30T18:28:07.049Z,25.2
2018-06-30T18:29:11.657Z,25.3
2018-06-30T18:30:14.872Z,25.2
2018-06-30T18:31:18.409Z,25.3
2018-06-30T18:33:37.822Z,25.4
2018-06-30T18:34:44.063Z,25.4
2018-06-30T18:35:47.612Z,25.4
2018-06-30T18:36:50.733Z,25.3
2018-06-30T18:37:52.328Z,25.1
2018-06-30T18:38:57.921Z,25.1
2018-06-30T18:39:59.320Z,25.2
2018-06-30T18:41:01.183Z,25.1
2018-06-30T18:42:02.684Z,25
2018-06-30T18:43:04.089Z,25.1
2018-06-30T18:44:08.457Z,25.1
2018-06-30T18:45:10.453Z,25.1
2018-06-30T18:46:11.799Z,25
2018-06-30T18:47:16.827Z,25
2018-06-30T18:48:18.421Z,25
2018-06-30T18:49:20.549Z,24.9
2018-06-30T18:50:24.456Z,25
2018-06-30T18:51:25.809Z,24.9
2018-06-30T18:52:30.360Z,24.8
2018-06-30T18:53:31.750Z,24.9
2018-06-30T18:54:36.417Z,24.9
2018-06-30T18:55:40.308Z,24.9
2018-06-30T18:56:41.673Z,24.8
2018-06-30T18:57:43.017Z,24.8
2018-06-30T18:58:44.296Z,24.8
2018-06-30T18:59:48.415Z,24.7
2018-06-30T19:00:53.525Z,24.7
2018-06-30T19:01:57.723Z,24.9
2018-06-30T19:03:10.114Z,24.9
2018-06-30T19:04:11.429Z,24.8
2018-06-30T19:05:12.788Z,24.6
2018-06-30T19:06:14.127Z,24.6
2018-06-30T19:07:18.651Z,24.6
2018-06-30T19:08:21.453Z,24.6
2018-06-30T19:09:22.841Z,24.6
2018-06-30T19:10:24.279Z,24.6
2018-06-30T19:11:25.831Z,24.6
2018-06-30T19:12:27.143Z,24.8
2018-06-30T19:13:28.693Z,24.7
2018-06-30T19:14:31.260Z,24.8
2018-06-30T19:15:32.841Z,24.7
2018-06-30T19:16:34.163Z,24.7
2018-06-30T19:17:35.435Z,24.5
2018-06-30T19:18:36.895Z,24.4
2018-06-30T19:19:38.317Z,24.4
2018-06-30T19:20:40.173Z,24.6
2018-06-30T19:21:41.560Z,24.4
2018-06-30T19:22:43.104Z,24.5
2018-06-30T19:23:44.764Z,24.4
2018-06-30T19:24:51.619Z,24.4
2018-06-30T19:25:55.673Z,24.4
2018-06-30T19:27:00.236Z,24.5
2018-06-30T19:28:03.184Z,24.4
2018-06-30T19:29:04.882Z,24.6
2018-06-30T19:30:06.348Z,24.5
2018-06-30T19:31:12.185Z,24.7
2018-06-30T19:32:13.682Z,24.3
2018-06-30T19:33:16.803Z,24.4
2018-06-30T19:34:19.270Z,24.5
2018-06-30T19:35:20.825Z,24.5
2018-06-30T19:36:23.459Z,24.1
2018-06-30T19:37:28.277Z,24.4
2018-06-30T19:38:30.191Z,24.6
2018-06-30T19:39:31.827Z,24.3
2018-06-30T19:40:35.833Z,24.2
2018-06-30T19:41:39.102Z,24.1
2018-06-30T19:42:41.086Z,24.5
2018-06-30T19:43:42.654Z,24.3
2018-06-30T19:44:46.331Z,24.1
2018-06-30T19:45:47.803Z,24.1
2018-06-30T19:46:49.381Z,23.9
2018-06-30T19:47:51.187Z,24.1
2018-06-30T19:48:52.496Z,24
2018-06-30T19:49:54.034Z,24.3
2018-06-30T19:50:57.864Z,24.3
2018-06-30T19:52:00.293Z,24.2
2018-06-30T19:53:06.816Z,24.2
2018-06-30T19:54:09.869Z,24.3
2018-06-30T19:55:17.102Z,24.2
2018-06-30T19:56:22.290Z,24.3
2018-06-30T19:57:23.658Z,23.7
2018-06-30T19:58:27.964Z,24
2018-06-30T19:59:31.423Z,24.3
2018-06-30T20:00:33.477Z,24.5
2018-06-30T20:01:37.085Z,24.2
2018-06-30T20:02:38.632Z,24.4
2018-06-30T20:03:40.237Z,24
2018-06-30T20:04:44.312Z,24
2018-06-30T20:05:47.178Z,24
2018-06-30T20:06:48.999Z,23.9
2018-06-30T20:07:52.699Z,24
2018-06-30T20:08:54.324Z,24.2
2018-06-30T20:09:55.840Z,23.9
2018-06-30T20:10:58.440Z,24.1
2018-06-30T20:12:00.049Z,24.1
2018-06-30T20:13:03.763Z,23.9
2018-06-30T20:14:07.585Z,23.9
2018-06-30T20:15:10.438Z,23.6
2018-06-30T20:16:12.045Z,23.9
2018-06-30T20:17:13.368Z,23.7
2018-06-30T20:18:21.134Z,23.7
2018-06-30T20:19:22.811Z,23.6
2018-06-30T20:20:24.322Z,23.6
2018-06-30T20:21:25.822Z,23.6
2018-06-30T20:22:27.320Z,23.7
2018-06-30T20:23:33.280Z,23.7
2018-06-30T20:24:34.673Z,23.6
2018-06-30T20:25:39.100Z,23.6
2018-06-30T20:26:41.160Z,23.5
2018-06-30T20:27:45.287Z,23.8
2018-06-30T20:28:46.766Z,23.7
2018-06-30T20:29:51.558Z,23.6
2018-06-30T20:30:55.377Z,23.6
2018-06-30T20:31:59.700Z,23.5
2018-06-30T20:33:03.109Z,23.6
2018-06-30T20:34:05.301Z,23.6
2018-06-30T20:35:07.272Z,23.6
2018-06-30T20:36:09.084Z,23.6
2018-06-30T20:37:15.433Z,23.5
2018-06-30T20:38:21.677Z,23.6
2018-06-30T20:39:23.632Z,23.5
2018-06-30T20:40:25.653Z,23.5
2018-06-30T20:41:27.846Z,23.3
2018-06-30T20:42:30.471Z,23.4
2018-06-30T20:43:32.733Z,23.4
2018-06-30T20:44:35.140Z,23.5
2018-06-30T20:45:38.609Z,23.5
2018-06-30T20:46:47.051Z,23.2
2018-06-30T20:47:49.271Z,23.3
2018-06-30T20:48:55.616Z,23.4
2018-06-30T20:51:15.670Z,23.3
2018-06-30T20:52:25.295Z,23.3
2018-06-30T20:53:44.302Z,22.9
2018-06-30T20:54:48.862Z,23.1
2018-06-30T20:55:50.728Z,23.1
2018-06-30T20:56:52.989Z,23.2
2018-06-30T20:58:05.088Z,23
2018-06-30T20:59:08.746Z,23.1
2018-06-30T21:00:12.602Z,23.2
2018-06-30T21:01:16.699Z,23.3
2018-06-30T21:02:24.857Z,23.3
2018-06-30T21:03:27.711Z,23.2
2018-06-30T21:04:29.395Z,23
2018-06-30T21:05:31.334Z,23.2
2018-06-30T21:06:32.763Z,23.2
2018-06-30T21:07:34.472Z,23.2
2018-06-30T21:08:38.725Z,23.2
2018-06-30T21:09:42.878Z,23.1
2018-06-30T21:10:45.818Z,23.1
2018-06-30T21:11:47.432Z,23.2
2018-06-30T21:12:59.020Z,23.1
2018-06-30T21:14:01.333Z,23.1
2018-06-30T21:15:04.996Z,23
2018-06-30T21:16:07.371Z,23
2018-06-30T21:17:09.123Z,23
2018-06-30T21:18:11.350Z,23
2018-06-30T21:19:13.763Z,23
2018-06-30T21:20:15.725Z,23
2018-06-30T21:21:17.830Z,23
2018-06-30T21:22:19.307Z,23
2018-06-30T21:23:23.770Z,23
2018-06-30T21:24:28.078Z,23
2018-06-30T21:25:29.729Z,23.1
2018-06-30T21:26:33.876Z,23
2018-06-30T21:27:36.610Z,23
2018-06-30T21:28:41.302Z,23
2018-06-30T21:29:42.743Z,22.9
2018-06-30T21:30:44.086Z,23
2018-06-30T21:31:48.641Z,23.1
2018-06-30T21:32:53.764Z,23.3
2018-06-30T21:33:57.164Z,23.3
2018-06-30T21:34:58.651Z,23.2
2018-06-30T21:36:00.105Z,23.3
2018-06-30T21:37:04.786Z,23.3
2018-06-30T21:44:34.421Z,23
2018-06-30T21:45:36.202Z,22.9
2018-06-30T21:46:40.371Z,22.9
2018-06-30T21:48:52.089Z,22.8
2018-06-30T21:49:54.109Z,22.8
2018-06-30T21:50:55.660Z,22.8
2018-06-30T21:51:59.723Z,22.9
2018-06-30T21:53:01.860Z,22.5
2018-06-30T21:54:03.200Z,22.8
2018-06-30T21:55:06.165Z,22.9
2018-06-30T21:56:16.408Z,22.8
2018-06-30T21:57:18.593Z,22.9
2018-06-30T21:58:22.914Z,22.9
2018-06-30T21:59:24.251Z,22.9
2018-06-30T22:00:28.020Z,22.9
2018-06-30T22:01:29.590Z,22.8
2018-06-30T22:02:30.957Z,22.8
2018-06-30T22:03:39.660Z,22.5
2018-06-30T22:04:43.537Z,22.4
2018-06-30T22:05:45.029Z,22.6
2018-06-30T22:06:46.451Z,22.6
2018-06-30T22:07:48.095Z,22.5
2018-06-30T22:08:49.688Z,22.6
2018-06-30T22:09:51.073Z,22.5
2018-06-30T22:10:53.531Z,22.4
2018-06-30T22:11:58.754Z,22.3
2018-06-30T22:13:00.691Z,22.4
2018-06-30T22:14:02.359Z,22.4
2018-06-30T22:15:03.959Z,22.5
2018-06-30T22:16:07.712Z,22.4
2018-06-30T22:17:13.933Z,22.3
2018-06-30T22:18:17.580Z,22.4
2018-06-30T22:19:21.615Z,22.4
2018-06-30T22:20:24.484Z,22.3
2018-06-30T22:21:25.750Z,22.3
2018-06-30T22:22:41.741Z,22.3
2018-06-30T22:23:45.565Z,22.3
2018-06-30T22:24:59.318Z,22.5
2018-06-30T22:26:58.453Z,22.4
2018-06-30T22:28:02.846Z,22.3
2018-06-30T22:29:06.521Z,22.4
2018-06-30T22:30:07.867Z,22.4
2018-06-30T22:31:14.769Z,22.3
2018-06-30T22:32:16.239Z,22.1
2018-06-30T22:33:17.552Z,22.3
2018-06-30T22:34:18.840Z,22.2
2018-06-30T22:35:20.150Z,22.1
2018-06-30T22:36:23.095Z,22.2
2018-06-30T22:37:24.745Z,22.1
2018-06-30T22:38:28.805Z,22.2
2018-06-30T22:39:30.130Z,22.3
2018-06-30T22:40:34.373Z,22.3
2018-06-30T22:41:36.156Z,22.2
2018-06-30T22:42:40.445Z,22.3
2018-06-30T22:43:41.827Z,22
2018-06-30T22:44:43.212Z,22
2018-06-30T22:45:44.721Z,22
2018-06-30T22:46:46.299Z,22
2018-06-30T22:47:47.692Z,21.7
2018-06-30T22:48:49.308Z,21.7
2018-06-30T22:49:50.745Z,21.3
2018-06-30T22:50:52.822Z,21.4
2018-06-30T22:51:57.969Z,21.7
2018-06-30T22:53:01.737Z,21.5
2018-06-30T22:54:03.206Z,21.6
2018-06-30T22:55:07.680Z,21.6
2018-06-30T22:56:09.440Z,21.5
2018-06-30T22:57:12.567Z,21.4
2018-06-30T22:58:14.109Z,21.6
2018-06-30T22:59:15.411Z,21.5
2018-06-30T23:00:21.043Z,21.5
2018-06-30T23:01:22.322Z,21.5
2018-06-30T23:02:23.570Z,21.5
2018-06-30T23:03:25.082Z,21.4
2018-06-30T23:04:26.322Z,20.8
2018-06-30T23:05:28.741Z,21.1
2018-06-30T23:06:30.263Z,21.1
2018-06-30T23:07:32.448Z,21.1
2018-06-30T23:08:33.713Z,20.9
2018-06-30T23:09:34.970Z,20.7
2018-06-30T23:10:36.181Z,21.1
2018-06-30T23:11:37.661Z,21.5
2018-06-30T23:12:38.970Z,21.6
2018-06-30T23:13:40.309Z,21
2018-06-30T23:14:41.655Z,21.4
2018-06-30T23:15:42.951Z,21
2018-06-30T23:16:44.245Z,21.2
2018-06-30T23:17:46.334Z,21.3
2018-06-30T23:18:47.848Z,21.1
2018-06-30T23:19:51.526Z,21.1
2018-06-30T23:20:53.053Z,20.9
2018-06-30T23:21:54.285Z,20.6
2018-06-30T23:22:55.603Z,20.6
2018-06-30T23:23:57.367Z,20.9
2018-06-30T23:24:59.522Z,20.7
2018-06-30T23:26:00.829Z,20.8
2018-06-30T23:27:02.354Z,20.9
2018-06-30T23:28:03.838Z,20.9
2018-06-30T23:29:16.921Z,20.6
2018-06-30T23:30:18.211Z,21.2
2018-06-30T23:31:19.493Z,21
2018-06-30T23:32:20.792Z,20.8
2018-06-30T23:33:25.286Z,21.1
2018-06-30T23:34:26.718Z,20.9
2018-06-30T23:35:30.063Z,20.9
2018-06-30T23:36:31.419Z,20.8
2018-06-30T23:37:37.069Z,21
2018-06-30T23:38:38.450Z,20.9
2018-06-30T23:39:40.027Z,21.1
2018-06-30T23:40:41.541Z,21.1
2018-06-30T23:41:42.820Z,21.1
2018-06-30T23:42:44.315Z,21.3
2018-06-30T23:43:45.854Z,21.1
2018-06-30T23:44:50.519Z,21.3
2018-06-30T23:45:51.957Z,21.1
2018-06-30T23:46:55.970Z,21.3
2018-06-30T23:47:59.866Z,21.1
2018-06-30T23:49:01.229Z,20.9
2018-06-30T23:50:02.519Z,20.4
2018-06-30T23:51:03.786Z,20.6
2018-06-30T23:52:08.243Z,20.8
2018-06-30T23:53:09.508Z,20.8
2018-06-30T23:54:13.147Z,20.5
2018-06-30T23:55:14.676Z,20.6
2018-06-30T23:56:15.998Z,20.4
2018-06-30T23:57:17.251Z,20.6
2018-06-30T23:58:18.711Z,19.9
2018-06-30T23:59:19.997Z,20.4
